createdAt,value
2019-02-21T00:00:42.293Z,80.36
2019-02-21T00:03:11.191Z,80.35
2019-02-21T00:05:39.820Z,80.71
2019-02-21T00:08:08.482Z,80.61
2019-02-21T00:10:37.164Z,80.79
2019-02-21T00:13:06.395Z,80.44
2019-02-21T00:15:35.289Z,80.33
2019-02-21T00:18:04.203Z,79.94
2019-02-21T00:20:32.840Z,79.87
2019-02-21T00:23:01.774Z,79.90
2019-02-21T00:25:30.889Z,79.92
2019-02-21T00:27:59.774Z,79.81
2019-02-21T00:30:35.194Z,79.45
2019-02-21T00:32:59.265Z,79.64
2019-02-21T00:35:28.226Z,79.32
2019-02-21T00:37:57.111Z,78.77
2019-02-21T00:40:26.071Z,78.63
2019-02-21T00:42:55.259Z,78.53
2019-02-21T00:45:24.657Z,78.19
2019-02-21T00:47:53.596Z,78.52
2019-02-21T00:50:22.235Z,78.63
2019-02-21T00:52:51.364Z,78.61
2019-02-21T00:55:20.250Z,79.37
2019-02-21T00:57:49.147Z,79.76
2019-02-21T01:00:17.970Z,79.40
2019-02-21T01:02:46.609Z,79.89
2019-02-21T01:05:15.524Z,79.54
2019-02-21T01:07:46.983Z,80.31
2019-02-21T01:10:15.007Z,80.20
2019-02-21T01:12:44.172Z,80.25
2019-02-21T01:15:12.894Z,80.62
2019-02-21T01:17:41.803Z,80.69
2019-02-21T01:20:10.768Z,80.65
2019-02-21T01:22:39.479Z,80.33
2019-02-21T01:25:08.471Z,80.45
2019-02-21T01:27:37.119Z,80.52
2019-02-21T01:30:06.064Z,80.56
2019-02-21T01:32:35.023Z,80.08
2019-02-21T01:35:03.727Z,79.82
2019-02-21T01:37:32.417Z,79.76
2019-02-21T01:40:01.388Z,79.50
2019-02-21T01:42:30.267Z,79.33
2019-02-21T01:44:58.960Z,79.50
2019-02-21T01:47:27.853Z,80.03
2019-02-21T01:49:56.508Z,78.98
2019-02-21T01:52:25.368Z,78.94
2019-02-21T01:54:54.041Z,79.14
2019-02-21T01:57:23.137Z,79.38
2019-02-21T01:59:52.015Z,79.31
2019-02-21T02:02:20.643Z,79.23
2019-02-21T02:04:49.531Z,79.54
2019-02-21T02:07:18.395Z,79.33
2019-02-21T02:09:47.442Z,79.18
2019-02-21T02:12:16.090Z,79.18
2019-02-21T02:14:45.249Z,79.36
2019-02-21T02:17:14.389Z,79.60
2019-02-21T02:19:43.276Z,79.85
2019-02-21T02:22:12.467Z,79.61
2019-02-21T02:24:41.350Z,79.96
2019-02-21T02:27:10.113Z,80.25
2019-02-21T02:29:38.988Z,80.17
2019-02-21T02:32:09.678Z,80.81
2019-02-21T02:34:38.249Z,80.64
2019-02-21T02:37:06.861Z,80.69
2019-02-21T02:39:35.566Z,80.72
2019-02-21T02:42:04.278Z,80.37
2019-02-21T02:44:33.167Z,80.85
2019-02-21T02:47:01.835Z,80.62
2019-02-21T02:49:31.093Z,80.96
2019-02-21T02:51:59.754Z,80.83
2019-02-21T02:54:28.909Z,80.56
2019-02-21T02:56:58.100Z,81.07
2019-02-21T02:59:26.979Z,80.49
2019-02-21T03:01:55.882Z,80.19
2019-02-21T03:04:24.613Z,80.54
2019-02-21T03:06:53.481Z,79.77
2019-02-21T03:09:22.357Z,80.11
2019-02-21T03:11:52.057Z,80.88
2019-02-21T03:14:21.110Z,80.81
2019-02-21T03:16:50.011Z,80.73
2019-02-21T03:19:21.974Z,81.73
2019-02-21T03:21:51.104Z,82.11
2019-02-21T03:24:19.951Z,81.96
2019-02-21T03:26:48.820Z,82.26
2019-02-21T03:29:17.711Z,82.27
2019-02-21T03:31:54.385Z,82.02
2019-02-21T03:34:17.569Z,82.43
2019-02-21T03:36:46.473Z,82.91
2019-02-21T03:39:17.844Z,83.47
2019-02-21T03:41:47.213Z,83.28
2019-02-21T03:44:15.846Z,84.51
2019-02-21T03:46:44.458Z,84.28
2019-02-21T03:49:13.869Z,85.00
2019-02-21T03:51:42.774Z,85.36
2019-02-21T03:54:11.461Z,85.43
2019-02-21T03:56:43.204Z,86.02
2019-02-21T03:59:13.642Z,85.75
2019-02-21T04:01:42.224Z,86.10
2019-02-21T04:04:13.974Z,86.38
2019-02-21T04:06:43.142Z,86.22
2019-02-21T04:09:12.189Z,86.33
2019-02-21T04:11:43.884Z,86.50
2019-02-21T04:14:12.856Z,86.79
2019-02-21T04:16:41.836Z,86.74
2019-02-21T04:19:10.450Z,86.74
2019-02-21T04:21:39.649Z,86.89
2019-02-21T04:24:08.731Z,86.82
2019-02-21T04:26:37.615Z,87.42
2019-02-21T04:29:06.584Z,87.04
2019-02-21T04:31:35.772Z,87.29
2019-02-21T04:34:04.649Z,87.43
2019-02-21T04:36:33.546Z,87.64
2019-02-21T04:39:02.194Z,87.33
2019-02-21T04:41:31.055Z,87.33
2019-02-21T04:43:59.983Z,87.34
2019-02-21T04:46:28.882Z,87.39
2019-02-21T04:48:57.766Z,87.40
2019-02-21T04:51:26.750Z,87.57
2019-02-21T04:53:55.670Z,87.85
2019-02-21T04:56:24.549Z,87.89
2019-02-21T04:58:53.720Z,88.09
2019-02-21T05:01:22.897Z,88.27
2019-02-21T05:03:51.601Z,88.48
2019-02-21T05:06:20.288Z,89.10
2019-02-21T05:08:49.240Z,89.19
2019-02-21T05:11:18.599Z,89.19
2019-02-21T05:13:47.549Z,89.48
2019-02-21T05:16:16.182Z,89.68
2019-02-21T05:18:45.126Z,89.58
2019-02-21T05:21:16.826Z,89.71
2019-02-21T05:23:46.902Z,89.56
2019-02-21T05:26:20.097Z,89.78
2019-02-21T05:28:49.190Z,89.78
2019-02-21T05:31:27.520Z,90.08
2019-02-21T05:34:07.682Z,90.32
2019-02-21T05:36:58.393Z,90.78
2019-02-21T05:39:54.333Z,90.78
2019-02-21T05:42:35.964Z,90.60
2019-02-21T05:45:29.582Z,90.43
2019-02-21T05:48:12.223Z,90.43
2019-02-21T05:50:49.410Z,90.67
2019-02-21T05:53:24.948Z,90.87
2019-02-21T05:56:01.629Z,90.83
2019-02-21T05:58:49.750Z,90.84
2019-02-21T06:01:43.743Z,90.84
2019-02-21T06:04:38.185Z,91.16
2019-02-21T06:07:16.721Z,91.10
2019-02-21T06:10:16.395Z,91.17
2019-02-21T06:12:51.479Z,91.10
2019-02-21T06:15:51.578Z,91.05
2019-02-21T06:18:43.601Z,91.41
2019-02-21T06:21:37.380Z,91.60
2019-02-21T06:24:24.070Z,91.60
2019-02-21T06:27:12.172Z,91.07
2019-02-21T06:29:45.259Z,91.01
2019-02-21T06:32:14.735Z,91.11
2019-02-21T06:34:43.596Z,91.11
2019-02-21T06:37:12.883Z,91.19
2019-02-21T06:39:42.353Z,91.10
2019-02-21T06:42:11.477Z,91.34
2019-02-21T06:44:40.362Z,91.66
2019-02-21T06:47:09.523Z,91.66
2019-02-21T06:49:38.676Z,91.69
2019-02-21T06:52:07.640Z,91.69
2019-02-21T06:54:36.607Z,91.58
2019-02-21T06:57:05.566Z,91.71
2019-02-21T06:59:42.182Z,91.54
2019-02-21T07:02:05.260Z,91.35
2019-02-21T07:04:34.207Z,91.35
2019-02-21T07:07:03.527Z,91.93
2019-02-21T07:09:32.729Z,92.25
2019-02-21T07:12:01.728Z,92.25
2019-02-21T07:14:30.423Z,91.96
2019-02-21T07:17:00.466Z,91.65
2019-02-21T07:19:29.392Z,91.99
2019-02-21T07:21:58.346Z,91.72
2019-02-21T07:24:27.228Z,91.56
2019-02-21T07:26:55.887Z,91.64
2019-02-21T07:29:24.558Z,91.64
2019-02-21T07:31:54.031Z,91.32
2019-02-21T07:34:22.849Z,91.32
2019-02-21T07:36:51.858Z,91.33
2019-02-21T07:39:21.411Z,91.48
2019-02-21T07:41:50.909Z,90.87
2019-02-21T07:44:20.044Z,90.87
2019-02-21T07:46:48.662Z,90.96
2019-02-21T07:49:17.297Z,91.06
2019-02-21T07:51:46.698Z,90.86
2019-02-21T07:54:18.510Z,90.86
2019-02-21T07:56:47.501Z,90.18
2019-02-21T07:59:16.241Z,90.06
2019-02-21T08:01:45.384Z,89.98
2019-02-21T08:04:14.860Z,89.53
2019-02-21T08:06:43.801Z,89.53
2019-02-21T08:09:12.831Z,89.63
2019-02-21T08:11:42.204Z,88.98
2019-02-21T08:14:10.863Z,88.40
2019-02-21T08:16:39.766Z,88.28
2019-02-21T08:19:08.669Z,88.28
2019-02-21T08:21:37.521Z,88.87
2019-02-21T08:24:06.316Z,88.20
2019-02-21T08:26:35.258Z,88.06
2019-02-21T08:29:06.170Z,87.29
2019-02-21T08:31:34.618Z,87.29
2019-02-21T08:34:07.437Z,86.49
2019-02-21T08:36:36.584Z,85.13
2019-02-21T08:39:07.161Z,83.47
2019-02-21T08:41:39.019Z,83.78
2019-02-21T08:44:07.666Z,82.57
2019-02-21T08:46:36.657Z,81.66
2019-02-21T08:49:07.642Z,81.66
2019-02-21T08:51:36.604Z,81.02
2019-02-21T08:54:05.777Z,79.01
2019-02-21T08:56:34.984Z,79.71
2019-02-21T08:59:03.940Z,79.91
2019-02-21T09:01:32.640Z,79.41
2019-02-21T09:04:10.468Z,80.03
2019-02-21T09:06:34.661Z,77.47
2019-02-21T09:09:04.264Z,77.47
2019-02-21T09:11:32.970Z,74.65
2019-02-21T09:14:01.882Z,73.59
2019-02-21T09:16:31.012Z,73.42
2019-02-21T09:19:00.223Z,74.09
2019-02-21T09:21:29.155Z,76.58
2019-02-21T09:23:58.143Z,76.84
2019-02-21T09:26:27.020Z,78.14
2019-02-21T09:28:58.514Z,75.29
2019-02-21T09:31:26.446Z,74.23
2019-02-21T09:33:55.176Z,72.50
2019-02-21T09:36:24.039Z,72.54
2019-02-21T09:38:53.086Z,71.32
2019-02-21T09:41:22.280Z,71.15
2019-02-21T09:43:51.458Z,70.53
2019-02-21T09:46:20.579Z,72.80
2019-02-21T09:48:49.489Z,75.52
2019-02-21T09:51:18.466Z,76.34
2019-02-21T09:53:47.325Z,76.44
2019-02-21T09:56:16.215Z,77.64
2019-02-21T09:58:45.999Z,78.67
2019-02-21T10:01:14.765Z,78.29
2019-02-21T10:03:44.371Z,77.89
2019-02-21T10:06:13.146Z,78.08
2019-02-21T10:08:41.776Z,78.00
2019-02-21T10:11:11.539Z,78.29
2019-02-21T10:13:40.275Z,77.41
2019-02-21T10:16:09.155Z,78.88
2019-02-21T10:18:38.717Z,78.56
2019-02-21T10:21:07.343Z,78.56
2019-02-21T10:23:35.960Z,77.97
2019-02-21T10:26:04.671Z,78.36
2019-02-21T10:28:33.289Z,77.97
2019-02-21T10:31:02.373Z,77.85
2019-02-21T10:33:31.513Z,77.99
2019-02-21T10:36:00.595Z,78.36
2019-02-21T10:38:29.353Z,78.20
2019-02-21T10:40:58.276Z,78.34
2019-02-21T10:43:26.859Z,79.52
2019-02-21T10:45:55.736Z,79.39
2019-02-21T10:48:24.690Z,79.10
2019-02-21T10:50:53.389Z,78.46
2019-02-21T10:53:22.034Z,78.69
2019-02-21T10:55:50.828Z,79.47
2019-02-21T10:58:19.715Z,79.31
2019-02-21T11:00:48.418Z,79.33
2019-02-21T11:03:17.543Z,79.12
2019-02-21T11:05:46.544Z,78.89
2019-02-21T11:08:15.501Z,78.92
2019-02-21T11:10:44.491Z,78.96
2019-02-21T11:13:13.378Z,79.49
2019-02-21T11:15:42.485Z,79.49
2019-02-21T11:18:11.093Z,79.62
2019-02-21T11:20:40.017Z,79.55
2019-02-21T11:23:08.862Z,79.45
2019-02-21T11:25:37.560Z,79.31
2019-02-21T11:28:06.743Z,79.13
2019-02-21T11:30:35.462Z,79.35
2019-02-21T11:33:04.724Z,79.16
2019-02-21T11:35:33.604Z,79.57
2019-02-21T11:38:02.316Z,79.45
2019-02-21T11:40:31.577Z,79.74
2019-02-21T11:43:02.691Z,79.52
2019-02-21T11:45:31.976Z,79.46
2019-02-21T11:48:01.078Z,79.39
2019-02-21T11:50:30.353Z,79.26
2019-02-21T11:52:59.556Z,79.26
2019-02-21T11:55:28.586Z,78.98
2019-02-21T11:57:57.498Z,79.34
2019-02-21T12:00:26.659Z,79.55
2019-02-21T12:02:55.513Z,79.55
2019-02-21T12:05:32.189Z,80.23
2019-02-21T12:07:54.919Z,82.13
2019-02-21T12:10:23.743Z,82.13
2019-02-21T12:12:53.196Z,82.58
2019-02-21T12:15:22.125Z,82.58
2019-02-21T12:17:50.868Z,82.23
2019-02-21T12:20:19.843Z,82.19
2019-02-21T12:22:48.546Z,81.96
2019-02-21T12:25:17.494Z,81.93
2019-02-21T12:27:46.160Z,82.18
2019-02-21T12:30:16.600Z,81.77
2019-02-21T12:32:45.507Z,82.37
2019-02-21T12:35:15.114Z,82.10
2019-02-21T12:37:43.897Z,81.76
2019-02-21T12:40:14.842Z,81.72
2019-02-21T12:42:43.795Z,81.99
2019-02-21T12:45:13.981Z,82.12
2019-02-21T12:47:50.841Z,81.98
2019-02-21T12:50:13.655Z,83.30
2019-02-21T12:52:42.632Z,83.59
2019-02-21T12:55:11.537Z,84.02
2019-02-21T12:57:40.723Z,84.78
2019-02-21T13:00:12.172Z,85.02
2019-02-21T13:02:41.041Z,84.64
2019-02-21T13:05:09.934Z,84.41
2019-02-21T13:07:38.928Z,84.60
2019-02-21T13:10:10.022Z,84.56
2019-02-21T13:12:39.414Z,84.67
2019-02-21T13:15:09.247Z,85.32
2019-02-21T13:17:37.858Z,85.32
2019-02-21T13:20:07.376Z,85.73
2019-02-21T13:22:36.330Z,85.99
2019-02-21T13:25:05.897Z,86.78
2019-02-21T13:27:35.262Z,87.23
2019-02-21T13:30:04.561Z,87.47
2019-02-21T13:32:33.704Z,87.47
2019-02-21T13:35:03.105Z,87.81
2019-02-21T13:37:31.957Z,87.82
2019-02-21T13:40:00.976Z,87.93
2019-02-21T13:42:29.922Z,88.21
2019-02-21T13:44:58.523Z,88.21
2019-02-21T13:47:27.396Z,87.91
2019-02-21T13:49:56.041Z,88.20
2019-02-21T13:52:24.756Z,88.60
2019-02-21T13:54:53.578Z,88.79
2019-02-21T13:57:22.725Z,89.24
2019-02-21T13:59:51.774Z,89.24
2019-02-21T14:02:20.481Z,90.09
2019-02-21T14:04:49.862Z,90.62
2019-02-21T14:07:18.761Z,90.71
2019-02-21T14:09:47.646Z,90.50
2019-02-21T14:12:16.629Z,90.38
2019-02-21T14:14:45.747Z,90.65
2019-02-21T14:17:15.208Z,90.40
2019-02-21T14:19:44.345Z,89.88
2019-02-21T14:22:13.490Z,89.85
2019-02-21T14:24:42.379Z,89.97
2019-02-21T14:27:11.319Z,90.90
2019-02-21T14:29:40.036Z,90.68
2019-02-21T14:32:08.998Z,90.77
2019-02-21T14:34:37.723Z,91.07
2019-02-21T14:37:06.566Z,91.42
2019-02-21T14:39:35.524Z,90.93
2019-02-21T14:42:04.660Z,90.93
2019-02-21T14:44:34.039Z,90.55
2019-02-21T14:47:02.971Z,90.18
2019-02-21T14:49:32.088Z,89.46
2019-02-21T14:52:01.987Z,89.01
2019-02-21T14:54:31.024Z,88.65
2019-02-21T14:56:59.888Z,88.27
2019-02-21T14:59:28.755Z,87.74
2019-02-21T15:01:57.620Z,87.93
2019-02-21T15:04:26.776Z,87.98
2019-02-21T15:06:55.916Z,88.06
2019-02-21T15:09:24.860Z,87.95
2019-02-21T15:11:53.771Z,88.07
2019-02-21T15:14:23.225Z,88.29
2019-02-21T15:16:51.893Z,88.34
2019-02-21T15:19:20.521Z,88.87
2019-02-21T15:21:49.161Z,88.94
2019-02-21T15:24:17.831Z,89.13
2019-02-21T15:26:46.963Z,88.73
2019-02-21T15:29:15.810Z,88.20
2019-02-21T15:31:44.688Z,88.79
2019-02-21T15:34:13.600Z,88.88
2019-02-21T15:36:42.780Z,88.86
2019-02-21T15:39:11.526Z,88.97
2019-02-21T15:41:40.495Z,89.01
2019-02-21T15:44:09.608Z,89.30
2019-02-21T15:46:38.502Z,89.65
2019-02-21T15:49:07.201Z,89.61
2019-02-21T15:51:40.734Z,89.69
2019-02-21T15:54:12.337Z,89.74
2019-02-21T15:56:40.788Z,89.76
2019-02-21T15:59:09.522Z,89.74
2019-02-21T16:01:47.010Z,89.39
2019-02-21T16:04:08.815Z,89.29
2019-02-21T16:06:39.308Z,89.20
2019-02-21T16:09:16.300Z,88.99
2019-02-21T16:11:40.002Z,88.87
2019-02-21T16:14:09.794Z,88.84
2019-02-21T16:16:38.427Z,89.02
2019-02-21T16:19:07.236Z,89.00
2019-02-21T16:21:36.385Z,88.86
2019-02-21T16:24:05.635Z,88.83
2019-02-21T16:26:36.195Z,89.46
2019-02-21T16:29:04.849Z,89.33
2019-02-21T16:31:33.789Z,89.16
2019-02-21T16:34:02.708Z,89.01
2019-02-21T16:36:31.621Z,88.75
2019-02-21T16:39:01.318Z,88.76
2019-02-21T16:41:36.379Z,89.01
2019-02-21T16:44:01.216Z,89.00
2019-02-21T16:46:29.840Z,89.83
2019-02-21T16:48:58.746Z,89.50
2019-02-21T16:51:27.449Z,89.26
2019-02-21T16:53:56.574Z,89.28
2019-02-21T16:56:26.646Z,89.13
2019-02-21T16:58:55.432Z,89.25
2019-02-21T17:01:24.328Z,89.20
2019-02-21T17:03:52.964Z,89.25
2019-02-21T17:06:21.896Z,89.36
2019-02-21T17:08:50.539Z,89.36
2019-02-21T17:11:19.533Z,89.65
2019-02-21T17:13:52.797Z,90.13
2019-02-21T17:16:21.072Z,90.28
2019-02-21T17:18:50.043Z,90.43
2019-02-21T17:21:20.996Z,90.78
2019-02-21T17:23:49.622Z,90.92
2019-02-21T17:26:18.262Z,91.06
2019-02-21T17:28:49.920Z,91.20
2019-02-21T17:31:18.649Z,91.27
2019-02-21T17:33:47.525Z,91.16
2019-02-21T17:36:16.269Z,91.22
2019-02-21T17:38:45.334Z,91.24
2019-02-21T17:41:14.270Z,91.21
2019-02-21T17:43:43.443Z,91.30
2019-02-21T17:46:12.376Z,91.38
2019-02-21T17:48:41.363Z,91.66
2019-02-21T17:51:10.310Z,91.45
2019-02-21T17:53:39.284Z,91.09
2019-02-21T17:56:08.280Z,91.08
2019-02-21T17:58:37.307Z,90.99
2019-02-21T18:01:08.812Z,90.82
2019-02-21T18:03:37.657Z,90.62
2019-02-21T18:06:06.415Z,90.99
2019-02-21T18:08:35.342Z,90.79
2019-02-21T18:11:04.092Z,90.87
2019-02-21T18:13:32.857Z,90.91
2019-02-21T18:16:01.512Z,90.95
2019-02-21T18:18:30.439Z,90.98
2019-02-21T18:20:59.189Z,90.85
2019-02-21T18:23:27.863Z,90.76
2019-02-21T18:26:04.448Z,90.64
2019-02-21T18:28:33.523Z,90.52
2019-02-21T18:31:02.287Z,90.51
2019-02-21T18:33:31.203Z,90.65
2019-02-21T18:35:59.877Z,90.78
2019-02-21T18:38:28.754Z,90.60
2019-02-21T18:40:57.493Z,90.51
2019-02-21T18:43:26.980Z,90.59
2019-02-21T18:45:57.543Z,90.60
2019-02-21T18:48:26.517Z,90.92
2019-02-21T18:50:55.280Z,91.03
2019-02-21T18:53:23.964Z,91.06
2019-02-21T18:55:52.879Z,91.01
2019-02-21T18:58:22.593Z,90.87
2019-02-21T19:00:51.509Z,90.53
2019-02-21T19:03:24.831Z,90.53
2019-02-21T19:05:54.026Z,90.76
2019-02-21T19:08:22.691Z,90.32
2019-02-21T19:10:52.069Z,90.32
2019-02-21T19:13:20.716Z,90.17
2019-02-21T19:15:49.926Z,90.33
2019-02-21T19:18:18.856Z,90.25
2019-02-21T19:20:49.870Z,90.02
2019-02-21T19:23:18.897Z,89.90
2019-02-21T19:25:49.166Z,89.93
2019-02-21T19:28:18.845Z,89.97
2019-02-21T19:30:54.436Z,90.10
2019-02-21T19:33:23.420Z,90.15
2019-02-21T19:35:52.908Z,90.09
2019-02-21T19:38:22.627Z,90.13
2019-02-21T19:40:51.521Z,90.06
2019-02-21T19:43:20.492Z,90.42
2019-02-21T19:45:50.533Z,90.36
2019-02-21T19:48:19.267Z,90.67
2019-02-21T19:50:47.986Z,90.44
2019-02-21T19:53:17.014Z,90.32
2019-02-21T19:55:46.266Z,90.64
2019-02-21T19:58:15.788Z,90.64
2019-02-21T20:00:44.832Z,90.36
2019-02-21T20:03:13.906Z,90.61
2019-02-21T20:05:42.930Z,90.73
2019-02-21T20:08:20.986Z,90.90
2019-02-21T20:10:43.249Z,90.77
2019-02-21T20:13:13.411Z,90.96
2019-02-21T20:15:42.182Z,90.97
2019-02-21T20:18:10.887Z,91.47
2019-02-21T20:20:40.195Z,91.81
2019-02-21T20:23:11.032Z,92.33
2019-02-21T20:25:39.978Z,92.53
2019-02-21T20:28:08.958Z,92.67
2019-02-21T20:30:37.969Z,92.69
2019-02-21T20:33:06.651Z,92.88
2019-02-21T20:35:35.591Z,93.02
2019-02-21T20:38:04.735Z,93.18
2019-02-21T20:40:33.620Z,93.09
2019-02-21T20:43:02.437Z,93.21
2019-02-21T20:45:31.673Z,93.20
2019-02-21T20:48:01.115Z,93.22
2019-02-21T20:50:29.743Z,93.33
2019-02-21T20:52:58.699Z,93.44
2019-02-21T20:55:27.345Z,93.56
2019-02-21T20:57:56.502Z,93.62
2019-02-21T21:00:25.792Z,93.64
2019-02-21T21:02:54.446Z,93.86
2019-02-21T21:05:23.447Z,94.02
2019-02-21T21:07:52.648Z,94.02
2019-02-21T21:10:21.626Z,93.84
2019-02-21T21:12:50.785Z,94.00
2019-02-21T21:15:19.525Z,94.17
2019-02-21T21:17:48.459Z,94.28
2019-02-21T21:20:17.665Z,94.31
2019-02-21T21:22:46.562Z,94.37
2019-02-21T21:25:15.422Z,94.06
2019-02-21T21:27:44.856Z,94.06
2019-02-21T21:30:14.540Z,94.32
2019-02-21T21:32:43.237Z,94.47
2019-02-21T21:35:12.180Z,94.51
2019-02-21T21:37:41.183Z,94.42
2019-02-21T21:40:11.801Z,94.50
2019-02-21T21:42:41.378Z,94.45
2019-02-21T21:45:12.582Z,94.37
2019-02-21T21:47:41.697Z,94.29
2019-02-21T21:50:11.357Z,94.33
2019-02-21T21:52:40.278Z,94.33
2019-02-21T21:55:08.976Z,94.55
2019-02-21T21:57:37.918Z,94.46
2019-02-21T22:00:09.127Z,94.48
2019-02-21T22:02:37.765Z,94.47
2019-02-21T22:05:07.039Z,94.17
2019-02-21T22:07:35.687Z,94.17
2019-02-21T22:10:05.161Z,94.41
2019-02-21T22:12:34.315Z,94.97
2019-02-21T22:15:03.254Z,94.97
2019-02-21T22:17:31.885Z,94.82
2019-02-21T22:20:00.502Z,94.90
2019-02-21T22:22:29.442Z,94.99
2019-02-21T22:24:58.313Z,95.12
2019-02-21T22:27:27.228Z,95.08
2019-02-21T22:29:56.397Z,95.03
2019-02-21T22:32:25.279Z,95.15
2019-02-21T22:34:53.930Z,95.14
2019-02-21T22:37:22.579Z,95.06
2019-02-21T22:39:52.186Z,94.81
2019-02-21T22:42:20.815Z,94.53
2019-02-21T22:44:49.734Z,94.53
2019-02-21T22:47:18.390Z,94.80
2019-02-21T22:49:47.550Z,94.71
2019-02-21T22:52:17.098Z,94.71
2019-02-21T22:54:46.516Z,94.84
2019-02-21T22:57:15.654Z,95.02
2019-02-21T22:59:44.814Z,94.78
2019-02-21T23:02:13.967Z,95.19
2019-02-21T23:04:48.374Z,95.19
2019-02-21T23:07:53.430Z,94.89
2019-02-21T23:10:22.404Z,94.96
2019-02-21T23:12:51.286Z,94.97
2019-02-21T23:15:20.509Z,94.93
2019-02-21T23:17:49.714Z,95.14
2019-02-21T23:20:18.667Z,95.32
2019-02-21T23:22:48.062Z,95.32
2019-02-21T23:25:16.974Z,95.25
2019-02-21T23:27:45.868Z,95.59
2019-02-21T23:30:14.919Z,95.59
2019-02-21T23:32:44.044Z,95.68
2019-02-21T23:35:18.103Z,95.42
2019-02-21T23:37:47.073Z,95.42
2019-02-21T23:40:16.262Z,95.44
2019-02-21T23:42:44.923Z,94.91
2019-02-21T23:45:13.890Z,94.91
2019-02-21T23:47:49.819Z,95.17
2019-02-21T23:50:12.988Z,95.24
2019-02-21T23:52:42.246Z,95.62
2019-02-21T23:55:10.919Z,95.62
2019-02-21T23:57:39.893Z,95.34
